Home > Products > Valid Products > MTR

000
SAUS46 KLOX 251215
MTRMWS
METAR KMWS 251200Z  0001G02KT 09/M11 RMK SNOW DEPTH 2.00





000
SAUS46 KLOX 251159
MTR9L2
METAR K9L2 251155Z AUTO 00000KT 10SM CLR 01/M05 A3019 RMK AO2 SLP227
T00061050 10067 20006 58004 FZRANO TSNO $





000
SAUS46 KLOX 251154
MTRMWS
METAR KMWS 251145Z 01002G05KT 09/M12 RMK SNOW DEPTH 2.00





000
SAUS46 KLOX 251154
MTRLAX
METAR KLAX 251153Z 00000KT 10SM CLR 13/01 A3002 RMK AO2 SLP164
T01280006 10194 20111 58005





000
SAUS46 KLOX 251149
MTRSDB
METAR KSDB 251148Z AUTO 04016KT 10SM CLR 08/M09 A3021 RMK AO2 SLP201
T00831094 10106 20072 58009 $





000
SAUS46 KLOX 251148
MTRCQT
METAR KCQT 251147Z AUTO 00000KT 10SM CLR 11/02 A3001 RMK AO2 SLP162
T01110017 10156 20111 58005 $





000
SAUS46 KLOX 251136
MTRMWS
METAR KMWS 251130Z 23500G00KT MM/M12 RMK SNOW DEPTH 2.00





000
SAUS46 KLOX 251115
MTRMWS
METAR KMWS 251100Z 34501G02KT 08/M13 RMK SNOW DEPTH 2.00





000
SAUS46 KLOX 251057
MTR9L2
METAR K9L2 251055Z AUTO 01003KT 10SM CLR 02/M05 A3020 RMK AO2 SLP229
T00171050 FZRANO TSNO $





000
SAUS46 KLOX 251054
MTRLAX
METAR KLAX 251053Z 00000KT 10SM CLR 13/01 A3003 RMK AO2 SLP165
T01280011





000
SAUS46 KLOX 251054
MTRMWS
METAR KMWS 251045Z 26002G04KT 09/M15 RMK SNOW DEPTH 2.00





000
SAUS46 KLOX 251049
MTRSDB
METAR KSDB 251048Z AUTO 05012KT 10SM CLR 08/M09 A3023 RMK AO2 SLP206
T00831094 $





000
SAUS46 KLOX 251048
MTRCQT
METAR KCQT 251047Z AUTO 00000KT 10SM CLR 12/02 A3003 RMK AO2 SLP167
T01170022 $





000
SAUS46 KLOX 251036
MTRMWS
METAR KMWS 251030Z 23500G00KT MM/M15 RMK SNOW DEPTH 2.00





000
SAUS46 KLOX 251015
MTRMWS
METAR KMWS 251000Z 34003G05KT 09/M19 RMK SNOW DEPTH 2.00





000
SAUS46 KLOX 250957
MTR9L2
METAR K9L2 250955Z AUTO 00000KT 10SM CLR 03/M05 A3021 RMK AO2 SLP232
T00281050 TSNO $





000
SAUS46 KLOX 250954
MTRMWS
METAR KMWS 250945Z 01001G04KT 10/M18 RMK SNOW DEPTH 2.00





000
SAUS46 KLOX 250954
MTRLAX
METAR KLAX 250953Z 00000KT 10SM CLR 16/00 A3003 RMK AO2 SLP167
T01560000





000
SAUS46 KLOX 250954
MTRMWS
METAR KMWS 250945Z 01001G04KT 10/M18 RMK SNOW DEPTH 2.00





000
SAUS46 KLOX 250954
MTRLAX
METAR KLAX 250953Z 00000KT 10SM CLR 16/00 A3003 RMK AO2 SLP167
T01560000





000
SAUS46 KLOX 250949
MTRSDB
METAR KSDB 250948Z AUTO 03010KT 10SM CLR 08/M09 A3024 RMK AO2 SLP210
T00781089 $





000
SAUS46 KLOX 250949
MTRSDB
METAR KSDB 250948Z AUTO 03010KT 10SM CLR 08/M09 A3024 RMK AO2 SLP210
T00781089 $





000
SAUS46 KLOX 250948
MTRCQT
METAR KCQT 250947Z AUTO 00000KT 10SM CLR 12/02 A3003 RMK AO2 SLP167
T01220022 $





000
SAUS46 KLOX 250948
MTRCQT
METAR KCQT 250947Z AUTO 00000KT 10SM CLR 12/02 A3003 RMK AO2 SLP167
T01220022 $





000
SAUS46 KLOX 250915
MTRMWS
METAR KMWS 250900Z 11002G06KT 10/M16 RMK SNOW DEPTH 2.00





000
SAUS46 KLOX 250857
MTR9L2
METAR K9L2 250855Z AUTO 00000KT 10SM CLR 03/M05 A3021 RMK AO2 SLP230
T00281050 58004 TSNO $





000
SAUS46 KLOX 250855
MTRLAX
METAR KLAX 250853Z 00000KT 10SM CLR 17/M01 A3003 RMK AO2 SLP168
T01721006 58004





000
SAUS46 KLOX 250854
MTRMWS
METAR KMWS 250845Z 27501G04KT 10/M16 RMK SNOW DEPTH 2.00





000
SAUS46 KLOX 250849
MTRSDB
METAR KSDB 250848Z AUTO 03006KT 10SM CLR 08/M08 A3024 RMK AO2 SLP213
T00781083 58008 $





000
SAUS46 KLOX 250848
MTRCQT
METAR KCQT 250847Z AUTO 35003KT 10SM CLR 13/02 A3003 RMK AO2 SLP167
T01280022 58004 $





000
SAUS46 KLOX 250836
MTRMWS
METAR KMWS 250830Z 23500G00KT MM/M14 RMK SNOW DEPTH 2.00





000
SAUS46 KLOX 250815
MTRMWS
METAR KMWS 250800Z 27501G03KT 09/M16 RMK SNOW DEPTH 2.00





000
SAUS46 KLOX 250757
MTR9L2
METAR K9L2 250755Z AUTO 34004KT 10SM CLR 04/M05 A3022 RMK AO2 SLP235
T00391050 402110006 TSNO $





000
SAUS46 KLOX 250754
MTRMWS
METAR KMWS 250745Z 23500G00KT MM/M15 RMK SNOW DEPTH 2.00





000
SAUS46 KLOX 250754
MTRLAX
METAR KLAX 250753Z 00000KT 10SM CLR 18/M01 A3004 RMK AO2 SLP169
T01781006 402440089





000
SAUS46 KLOX 250749
MTRSDB
METAR KSDB 250748Z AUTO 04017KT 10SM CLR 09/M08 A3024 RMK AO2 SLP213
T00891083 401610061 $





000
SAUS46 KLOX 250748
MTRCQT
METAR KCQT 250747Z AUTO 00000KT 10SM CLR 13/03 A3004 RMK AO2 SLP170
T01330028 402780094 $





000
SAUS46 KLOX 250736
MTRMWS
METAR KMWS 250730Z 23500G00KT MM/M15 RMK SNOW DEPTH 2.00





000
SAUS46 KLOX 250715
MTRMWS
METAR KMWS 250700Z 15001G06KT 10/M14 RMK SNOW DEPTH 2.00





000
SAUS46 KLOX 250657
MTR9L2
METAR K9L2 250655Z AUTO 31006KT 10SM CLR 06/M06 A3023 RMK AO2 SLP236
T00611056 TSNO $





000
SAUS46 KLOX 250654
MTRMWS
METAR KMWS 250645Z 33004G10KT 08/M16 RMK SNOW DEPTH 2.00





000
SAUS46 KLOX 250654
MTRLAX
METAR KLAX 250653Z 00000KT 10SM CLR 17/M01 A3005 RMK AO2 SLP172
T01721006





000
SAUS46 KLOX 250649
MTRSDB
METAR KSDB 250648Z AUTO 33013KT 10SM CLR 10/M08 A3027 RMK AO2 SLP220
T01001083 $





000
SAUS46 KLOX 250648
MTRCQT
METAR KCQT 250647Z AUTO 00000KT 10SM CLR 14/03 A3004 RMK AO2 SLP171
T01440028 $





000
SAUS46 KLOX 250636
MTRMWS
METAR KMWS 250630Z 23500G00KT MM/M14 RMK SNOW DEPTH 2.00





000
SAUS46 KLOX 250615
MTRMWS
METAR KMWS 250600Z  0502G08KT 08/M14 RMK SNOW DEPTH 2.00





000
SAUS46 KLOX 250557
MTR9L2
METAR K9L2 250555Z AUTO VRB03KT 10SM CLR 06/M05 A3022 RMK AO2 SLP236
T00611050 10200 20056 51015 TSNO $





000
SAUS46 KLOX 250554
MTRLAX
METAR KLAX 250553Z 00000KT 10SM CLR 18/01 A3004 RMK AO2 SLP172
T01780006 10228 20167 51014





000
SAUS46 KLOX 250554
MTRMWS
METAR KMWS 250545Z 25001G03KT 08/M14 RMK SNOW DEPTH 2.00





000
SAUS46 KLOX 250549
MTRSDB
METAR KSDB 250548Z AUTO 33008KT 10SM CLR 09/M08 A3027 RMK AO2 SLP224
T00941078 10156 20089 51013 $





000
SAUS46 KLOX 250548
MTRCQT
METAR KCQT 250547Z AUTO 00000KT 10SM CLR 16/03 A3004 RMK AO2 SLP171
T01560028 10261 20156 51015 $





000
SAUS46 KLOX 250536
MTRMWS
METAR KMWS 250530Z 23500G00KT MM/M13 RMK SNOW DEPTH 2.00





000
SAUS46 KLOX 250515
MTRMWS
METAR KMWS 250500Z 35503G07KT 08/M14 RMK SNOW DEPTH 2.00





000
SAUS46 KLOX 250459
MTR9L2
METAR K9L2 250455Z AUTO 27004KT 10SM CLR 07/M05 A3021 RMK AO2 SLP235
T00721050 TSNO $





000
SAUS46 KLOX 250457
MTRMWS
METAR KMWS 250445Z 01001G03KT 09/M14 RMK SNOW DEPTH 2.00





000
SAUS46 KLOX 250454
MTRLAX
METAR KLAX 250453Z 08003KT 10SM CLR 17/02 A3003 RMK AO2 SLP169
T01720022





000
SAUS46 KLOX 250449
MTRSDB
METAR KSDB 250448Z AUTO VRB04KT 10SM CLR 10/M08 A3026 RMK AO2 SLP225
T01001078 $





000
SAUS46 KLOX 250448
MTRCQT
METAR KCQT 250447Z AUTO 00000KT 10SM CLR 17/01 A3003 RMK AO2 SLP168
T01670011 $





000
SAUS46 KLOX 250436
MTRMWS
METAR KMWS 250430Z 23500G00KT MM/M14 RMK SNOW DEPTH 2.00





000
SAUS46 KLOX 250415
MTRMWS
METAR KMWS 250400Z 02006G08KT 10/M16 RMK SNOW DEPTH 2.00





000
SAUS46 KLOX 250357
MTR9L2
METAR K9L2 250355Z AUTO 00000KT 10SM CLR 11/M08 A3019 RMK AO2 SLP230
T01111078 $





000
SAUS46 KLOX 250354
MTRLAX
METAR KLAX 250353Z 15003KT 10SM CLR 19/01 A3001 RMK AO2 SLP164
T01940006





000
SAUS46 KLOX 250354
MTRMWS
METAR KMWS 250345Z 02505G06KT 10/M15 RMK SNOW DEPTH 2.00





000
SAUS46 KLOX 250349
MTRSDB
METAR KSDB 250348Z AUTO 36004KT 10SM CLR 10/M07 A3025 RMK AO2 SLP223
T01001072 $





000
SAUS46 KLOX 250349
MTRSDB
METAR KSDB 250348Z AUTO 36004KT 10SM CLR 10/M07 A3025 RMK AO2 SLP223
T01001072 $





000
SAUS46 KLOX 250348
MTRCQT
METAR KCQT 250347Z AUTO 00000KT 10SM CLR 18/02 A3001 RMK AO2 SLP162
T01780017 $





000
SAUS46 KLOX 250348
MTRCQT
METAR KCQT 250347Z AUTO 00000KT 10SM CLR 18/02 A3001 RMK AO2 SLP162
T01780017 $





000
SAUS46 KLOX 250336
MTRMWS
METAR KMWS 250330Z 23500G00KT MM/M16 RMK SNOW DEPTH 2.00





000
SAUS46 KLOX 250315
MTRMWS
METAR KMWS 250300Z 34504G05KT 11/M16 RMK SNOW DEPTH 2.00





000
SAUS46 KLOX 250257
MTR9L2
METAR K9L2 250255Z AUTO 10010KT 10SM CLR 14/M08 A3018 RMK AO2 SLP225
T01441083 53004 TSNO $





000
SAUS46 KLOX 250254
MTRLAX
METAR KLAX 250253Z 28003KT 10SM CLR 18/04 A3000 RMK AO2 SLP159
T01830039 53001





000
SAUS46 KLOX 250254
MTRMWS
METAR KMWS 250245Z 35504G06KT 11/M15 RMK SNOW DEPTH 2.00





000
SAUS46 KLOX 250249
MTRSDB
METAR KSDB 250248Z AUTO 07008KT 10SM CLR 11/M07 A3023 RMK AO2 SLP212
T01061072 $





000
SAUS46 KLOX 250248
MTRCQT
METAR KCQT 250247Z AUTO 00000KT 10SM CLR 19/01 A2999 RMK AO2 SLP156
T01940006 53003 $





000
SAUS46 KLOX 250236
MTRMWS
METAR KMWS 250230Z 23500G00KT MM/M15 RMK SNOW DEPTH 2.00





000
SAUS46 KLOX 250215
MTRMWS
METAR KMWS 250200Z  0005G07KT 11/M16 RMK SNOW DEPTH 2.00





000
SAUS46 KLOX 250157
MTR9L2
METAR K9L2 250155Z AUTO 10009KT 10SM CLR 14/M07 A3015 RMK AO2 SLP217
T01391067 $





000
SAUS46 KLOX 250157
MTR9L2
METAR K9L2 250155Z AUTO 10009KT 10SM CLR 14/M07 A3015 RMK AO2 SLP217
T01391067 $





000
SAUS46 KLOX 250155
MTRLAX
METAR KLAX 250153Z 25004KT 10SM CLR 21/01 A2999 RMK AO2 SLP155
T02060011





000
SAUS46 KLOX 250155
MTRLAX
METAR KLAX 250153Z 25004KT 10SM CLR 21/01 A2999 RMK AO2 SLP155
T02060011





000
SAUS46 KLOX 250154
MTRMWS
METAR KMWS 250145Z 36004G09KT 11/M15 RMK SNOW DEPTH 2.00





000
SAUS46 KLOX 250154
MTRMWS
METAR KMWS 250145Z 36004G09KT 11/M15 RMK SNOW DEPTH 2.00





000
SAUS46 KLOX 250149
MTRSDB
METAR KSDB 250148Z AUTO 08015G23KT 10SM CLR 12/M07 A3022 RMK AO2 PK
WND 07027/0055 SLP208 T01171072 $





000
SAUS46 KLOX 250149
MTRSDB
METAR KSDB 250148Z AUTO 08015G23KT 10SM CLR 12/M07 A3022 RMK AO2 PK
WND 07027/0055 SLP208 T01171072 $





000
SAUS46 KLOX 250149
MTRCQT
METAR KCQT 250147Z AUTO 00000KT 10SM CLR 21/M01 A2998 RMK AO2 SLP151
T02111006 $





000
SAUS46 KLOX 250149
MTRCQT
METAR KCQT 250147Z AUTO 00000KT 10SM CLR 21/M01 A2998 RMK AO2 SLP151
T02111006 $





000
SAUS46 KLOX 250136
MTRMWS
METAR KMWS 250130Z 23500G00KT MM/M13 RMK SNOW DEPTH 2.00





000
SAUS46 KLOX 250136
MTRMWS
METAR KMWS 250130Z 23500G00KT MM/M13 RMK SNOW DEPTH 2.00





000
SAUS46 KLOX 250115
MTRMWS
METAR KMWS 250100Z 06003G06KT 13/M14 RMK SNOW DEPTH 2.00





000
SAUS46 KLOX 250115
MTRMWS
METAR KMWS 250100Z 06003G06KT 13/M14 RMK SNOW DEPTH 2.00





000
SAUS46 KLOX 250057
MTR9L2
METAR K9L2 250055Z AUTO 10013KT 10SM CLR 17/M07 A3015 RMK AO2 SLP216
T01671072 $





000
SAUS46 KLOX 250054
MTRMWS
METAR KMWS 250045Z 31502G03KT 15/M12 RMK SNOW DEPTH 2.00





000
SAUS46 KLOX 250054
MTRLAX
METAR KLAX 250053Z 25004KT 10SM CLR 21/04 A2999 RMK AO2 SLP156
T02110044





000
SAUS46 KLOX 250048
MTRCQT
METAR KCQT 250047Z AUTO 00000KT 10SM CLR 24/M02 A2998 RMK AO2 SLP152
T02391017 $





000
SAUS46 KLOX 250036
MTRMWS
METAR KMWS 250030Z 23500G00KT MM/M13 RMK SNOW DEPTH 2.00





000
SAUS46 KLOX 250015
MTRMWS
METAR KMWS 250000Z 08007G10KT 16/M14 RMK SNOW DEPTH 3.00





000
SAUS46 KLOX 242357
MTR9L2
METAR K9L2 242355Z AUTO 09013KT 10SM CLR 20/M09 A3016 RMK AO2 SLP214
T02001094 10211 20150 55004 $





000
SAUS46 KLOX 242355
MTRLAX
METAR KLAX 242353Z 27007KT 10SM CLR 23/02 A2999 RMK AO2 SLP157
T02280022 10244 20211 55005





000
SAUS46 KLOX 242354
MTRMWS
METAR KMWS 242345Z 10007G10KT 17/M12 RMK SNOW DEPTH 3.00





000
SAUS46 KLOX 242349
MTRCQT
METAR KCQT 242347Z AUTO 26004KT 10SM CLR 26/M02 A2999 RMK AO2 SLP152
T02611022 10278 20211 55004 $





000
SAUS46 KLOX 242349
MTRSDB
METAR KSDB 242348Z AUTO 08023G32KT 10SM CLR 15/M08 A3020 RMK AO2 PK
WND 08035/2305 SLP195 T01501083 10161 20111 55005 $





000
SAUS46 KLOX 242336
MTRMWS
METAR KMWS 242330Z 23500G00KT MM/M13 RMK SNOW DEPTH 3.00





000
SAUS46 KLOX 242315
MTRMWS
METAR KMWS 242300Z 11503G06KT 16/M11 RMK SNOW DEPTH 2.00





000
SAUS46 KLOX 242257
MTR9L2
METAR K9L2 242255Z AUTO 06019G26KT 10SM CLR 21/M10 A3016 RMK AO2 PK
WND 05028/2228 SLP214 T02061100 $





000
SAUS46 KLOX 242254
MTRMWS
METAR KMWS 242245Z  0504G08KT 16/M09 RMK SNOW DEPTH 2.00





000
SAUS46 KLOX 242254
MTRLAX
METAR KLAX 242253Z 22006KT 10SM FEW230 24/M01 A2999 RMK AO2 SLP155
T02391011





000
SAUS46 KLOX 242249
MTRSDB
METAR KSDB 242248Z AUTO 08026G35KT 10SM CLR 16/M09 A3019 RMK AO2 PK
WND 09035/2244 SLP192 T01561089 $





000
SAUS46 KLOX 242249
MTRCQT
METAR KCQT 242247Z AUTO 00000KT 10SM CLR 27/M03 A2998 RMK AO2 SLP149
T02721033 $





000
SAUS46 KLOX 242236
MTRMWS
METAR KMWS 242230Z 23500G00KT MM/M07 RMK SNOW DEPTH 2.00





000
SAUS46 KLOX 242215
MTRMWS
METAR KMWS 242200Z 32004G06KT 15/M09 RMK SNOW DEPTH 2.00





000
SAUS46 KLOX 242157
MTR9L2
METAR K9L2 242155Z AUTO 06020G27KT 10SM CLR 21/M09 A3016 RMK AO2 PK
WND 05029/2105 SLP214 T02061089 $





000
SAUS46 KLOX 242154
MTRMWS
METAR KMWS 242145Z 23500G00KT MM/M07 RMK SNOW DEPTH 2.00





000
SAUS46 KLOX 242154
MTRLAX
METAR KLAX 242153Z 22007KT 10SM CLR 24/M02 A2999 RMK AO2 SLP154
T02441022





000
SAUS46 KLOX 242149
MTRSDB
METAR KSDB 242148Z AUTO 08025G32KT 10SM CLR 16/M08 A3020 RMK AO2 PK
WND 08032/2136 SLP196 T01561078 $





000
SAUS46 KLOX 242148
MTRCQT
METAR KCQT 242147Z AUTO 00000KT 10SM CLR 27/M03 A2998 RMK AO2 SLP151
T02671028 $





000
SAUS46 KLOX 242136
MTRMWS
METAR KMWS 242130Z 23500G00KT MM/M07 RMK SNOW DEPTH 2.00





000
SAUS46 KLOX 242136
MTRMWS
METAR KMWS 242130Z 23500G00KT MM/M07 RMK SNOW DEPTH 2.00





000
SAUS46 KLOX 242115
MTRMWS
METAR KMWS 242100Z 32503G06KT 16/M07 RMK SNOW DEPTH 2.00





000
SAUS46 KLOX 242057
MTR9L2
METAR K9L2 242055Z AUTO 04020G27KT 10SM CLR 20/M09 A3018 RMK AO2 PK
WND 06029/2034 SLP219 T02001089 58025 $





000
SAUS46 KLOX 242055
MTRLAX
METAR KLAX 242053Z 24010KT 10SM CLR 23/M03 A3001 RMK AO2 SLP162
T02281033 58027





000
SAUS46 KLOX 242050
MTRSDB
METAR KSDB 242048Z AUTO 06018G32KT 10SM CLR 14/M06 A3021 RMK AO2 PK
WND 07039/1949 SLP201 T01441061 58018 $





000
SAUS46 KLOX 242049
MTRCQT
METAR KCQT 242047Z AUTO 00000KT 10SM CLR 27/M01 A3000 RMK AO2 SLP156
T02671011 58029 $





000
SAUS46 KLOX 242036
MTRMWS
METAR KMWS 242030Z 23500G00KT MM/M07 RMK SNOW DEPTH 2.00





000
SAUS46 KLOX 242015
MTRMWS
METAR KMWS 242000Z 12501G04KT 15/M08 RMK SNOW DEPTH 3.00





000
SAUS46 KLOX 241959
MTR9L2
METAR K9L2 241955Z AUTO 08017G24KT 10SM CLR 18/M07 A3022 RMK AO2 PK
WND 07029/1911 SLP234 T01831067 $





000
SAUS46 KLOX 241954
MTRLAX
METAR KLAX 241953Z 21005KT 10SM CLR 23/M03 A3004 RMK AO2 SLP172
T02331028





000
SAUS46 KLOX 241954
MTRMWS
METAR KMWS 241945Z 31006G08KT 14/M08 RMK SNOW DEPTH 2.00





000
SAUS46 KLOX 241949
MTRSDB
METAR KSDB 241948Z AUTO 07026G38KT 10SM CLR 13/M07 A3022 RMK AO2 PK
WND 07038/1944 SLP206 T01331072 $





000
SAUS46 KLOX 241948
MTRCQT
METAR KCQT 241947Z AUTO 00000KT 10SM CLR 26/M02 A3003 RMK AO2 SLP167
T02611017 $





000
SAUS46 KLOX 241936
MTRMWS
METAR KMWS 241930Z 23500G00KT MM/M07 RMK SNOW DEPTH 2.00





000
SAUS46 KLOX 241915
MTRMWS
METAR KMWS 241900Z 31003G06KT 13/M09 RMK SNOW DEPTH 2.00





000
SAUS46 KLOX 241857
MTR9L2
METAR K9L2 241855Z AUTO 07023G28KT 10SM CLR 17/M06 A3023 RMK AO2 PK
WND 07029/1837 SLP240 T01671061 $





000
SAUS46 KLOX 241854
MTRMWS
METAR KMWS 241845Z 32004G10KT 14/M08 RMK SNOW DEPTH 2.00





000
SAUS46 KLOX 241854
MTRLAX
METAR KLAX 241853Z 24003KT 10SM CLR 22/M01 A3008 RMK AO2 SLP184
T02221006





000
SAUS46 KLOX 241849
MTRSDB
METAR KSDB 241848Z AUTO 05014G22KT 10SM CLR 13/M07 A3027 RMK AO2 PK
WND 05026/1749 SLP223 T01281072 $





000
SAUS46 KLOX 241849
MTRCQT
METAR KCQT 241847Z AUTO 00000KT 10SM CLR 24/M02 A3007 RMK AO2 SLP182
T02441017 $





000
SAUS46 KLOX 241815
MTRMWS
METAR KMWS 241800Z 01507G13KT 11/M10 RMK SNOW DEPTH 2.00





000
SAUS46 KLOX 241757
MTR9L2
METAR K9L2 241755Z AUTO 09018KT 10SM CLR 15/M06 A3026 RMK AO2 SLP251
T01501056 10150 20006 58006 TSNO $





000
SAUS46 KLOX 241754
MTRMWS
METAR KMWS 241745Z 02503G08KT 11/M09 RMK SNOW DEPTH 2.00





000
SAUS46 KLOX 241754
MTRLAX
METAR KLAX 241753Z 17005KT 10SM CLR 21/00 A3009 RMK AO2 SLP189
T02110000 10211 20089 51003





000
SAUS46 KLOX 241749
MTRSDB
METAR KSDB 241748Z AUTO 04018G26KT 10SM CLR 11/M07 A3028 RMK AO2 PK
WND 05026/1746 SLP228 T01111072 10111 20061 52007 $





000
SAUS46 KLOX 241748
MTRCQT
METAR KCQT 241747Z AUTO 00000KT 10SM CLR 21/M01 A3009 RMK AO2 SLP186
T02111006 10211 20094 53000 $





000
SAUS46 KLOX 241736
MTRMWS
METAR KMWS 241730Z 23500G00KT MM/M07 RMK SNOW DEPTH 2.00





000
SAUS46 KLOX 241715
MTRMWS
METAR KMWS 241700Z 02004G07KT 11/M08 RMK SNOW DEPTH 2.00





000
SAUS46 KLOX 241657
MTR9L2
METAR K9L2 241655Z AUTO 06005KT 10SM CLR 12/M04 A3026 RMK AO2 SLP255
T01171039 TSNO $





000
SAUS46 KLOX 241654
MTRLAX
METAR KLAX 241653Z 11003KT 10SM CLR 16/01 A3010 RMK AO2 SLP190
T01560011





000
SAUS46 KLOX 241654
MTRMWS
METAR KMWS 241645Z 05003G10KT 10/M09 RMK SNOW DEPTH 2.00





000
SAUS46 KLOX 241649
MTRSDB
METAR KSDB 241648Z AUTO 05017G22KT 10SM CLR 09/M08 A3026 RMK AO2
SLP225 T00891078 $





000
SAUS46 KLOX 241648
MTRCQT
METAR KCQT 241647Z AUTO 00000KT 10SM CLR 18/M02 A3009 RMK AO2 SLP186
T01781022 $





000
SAUS46 KLOX 241636
MTRMWS
METAR KMWS 241630Z 23500G00KT MM/M08 RMK SNOW DEPTH 2.00





000
SAUS46 KLOX 241615
MTRMWS
METAR KMWS 241600Z  0503G10KT 07/M09 RMK SNOW DEPTH 1.00





000
SAUS46 KLOX 241557
MTRMWS
METAR KMWS 241545Z 32006G08KT 06/M10 RMK SNOW DEPTH 1.00





000
SAUS46 KLOX 241557
MTR9L2
METAR K9L2 241555Z AUTO 36004KT 10SM CLR 06/M04 A3027 RMK AO2 SLP263
T00561039 TSNO $





000
SAUS46 KLOX 241554
MTRLAX
METAR KLAX 241553Z 13004KT 10SM CLR 12/01 A3009 RMK AO2 SLP188
T01170011





000
SAUS46 KLOX 241549
MTRSDB
METAR KSDB 241548Z AUTO 05016G24KT 10SM CLR 08/M09 A3027 RMK AO2 PK
WND 06027/1453 SLP229 T00781089 $





000
SAUS46 KLOX 241549
MTRSDB
METAR KSDB 241548Z AUTO 05016G24KT 10SM CLR 08/M09 A3027 RMK AO2 PK
WND 06027/1453 SLP229 T00781089 $





000
SAUS46 KLOX 241548
MTRCQT
METAR KCQT 241547Z AUTO 00000KT 10SM CLR 12/M02 A3008 RMK AO2 SLP186
T01221017 $





000
SAUS46 KLOX 241548
MTRCQT
METAR KCQT 241547Z AUTO 00000KT 10SM CLR 12/M02 A3008 RMK AO2 SLP186
T01221017 $





000
SAUS46 KLOX 241536
MTRMWS
METAR KMWS 241530Z 23500G00KT MM/M09 RMK SNOW DEPTH 1.00





000
SAUS46 KLOX 241536
MTRMWS
METAR KMWS 241530Z 23500G00KT MM/M09 RMK SNOW DEPTH 1.00





000
SAUS46 KLOX 241515
MTRMWS
METAR KMWS 241500Z 33001G04KT 05/M10 RMK SNOW DEPTH 1.00





000
SAUS46 KLOX 241457
MTR9L2
METAR K9L2 241455Z AUTO 36006KT 10SM CLR 01/M05 A3028 RMK AO2 SLP267
T00061050 52012 FZRANO TSNO $





000
SAUS46 KLOX 241454
MTRMWS
METAR KMWS 241445Z 35002G08KT 06/M09 RMK SNOW DEPTH 1.00





000
SAUS46 KLOX 241454
MTRLAX
METAR KLAX 241453Z 00000KT 10SM CLR 12/M01 A3009 RMK AO2 SLP188
T01221006 53006





000
SAUS46 KLOX 241449
MTRSDB
METAR KSDB 241448Z AUTO 06017G31KT 10SM CLR 08/M09 A3025 RMK AO2 PK
WND 06036/1353 SLP224 T00781094 53007 $





000
SAUS46 KLOX 241448
MTRCQT
METAR KCQT 241447Z AUTO 00000KT 10SM CLR 11/M02 A3008 RMK AO2 SLP187
T01061017 53006 $





000
SAUS46 KLOX 241436
MTRMWS
METAR KMWS 241430Z 23500G00KT MM/M09 RMK SNOW DEPTH 1.00





000
SAUS46 KLOX 241415
MTRMWS
METAR KMWS 241400Z 34001G03KT 06/M09 RMK SNOW DEPTH 1.00





000
SAUS46 KLOX 241357
MTR9L2
METAR K9L2 241355Z AUTO 30010KT 10SM CLR 02/M05 A3027 RMK AO2 SLP260
T00221050 FZRANO TSNO $





000
SAUS46 KLOX 241354
MTRMWS
METAR KMWS 241345Z  0504G08KT 05/M10 RMK SNOW DEPTH 1.00





000
SAUS46 KLOX 241354
MTRLAX
METAR KLAX 241353Z 00000KT 10SM CLR 11/M01 A3008 RMK AO2 SLP183
T01111006





000
SAUS46 KLOX 241349
MTRSDB
METAR KSDB 241348Z AUTO 06018G26KT 10SM CLR 07/M09 A3023 RMK AO2 PK
WND 07035/1254 SLP214 T00721089 $





000
SAUS46 KLOX 241348
MTRCQT
METAR KCQT 241347Z AUTO 00000KT 10SM CLR 11/M02 A3007 RMK AO2 SLP181
T01061017 $





000
SAUS46 KLOX 241336
MTRMWS
METAR KMWS 241330Z 23500G00KT MM/M08 RMK SNOW DEPTH 1.00





000
SAUS46 KLOX 241315
MTRMWS
METAR KMWS 241300Z 32503G06KT 07/M10 RMK SNOW DEPTH 1.00





000
SAUS46 KLOX 241257
MTR9L2
METAR K9L2 241255Z AUTO 22005KT 10SM CLR 01/M05 A3025 RMK AO2 SLP250
T00111050 FZRANO TSNO $





000
SAUS46 KLOX 241254
MTRMWS
METAR KMWS 241245Z  0005G10KT 07/M10 RMK SNOW DEPTH 1.00





000
SAUS46 KLOX 241254
MTRLAX
METAR KLAX 241253Z 00000KT 10SM CLR 10/00 A3006 RMK AO2 SLP178
T01000000





000
SAUS46 KLOX 241249
MTRSDB
METAR KSDB 241248Z AUTO 07026G34KT 10SM CLR 08/M09 A3022 RMK AO2 PK
WND 07034/1245 SLP209 T00831094 $





000
SAUS46 KLOX 241248
MTRCQT
METAR KCQT 241247Z AUTO 00000KT 10SM CLR 11/M01 A3005 RMK AO2 SLP175
T01061006 $





000
SAUS46 KLOX 241236
MTRMWS
METAR KMWS 241230Z 23500G00KT MM/M11 RMK SNOW DEPTH 2.00





000
SAUS46 KLOX 241215
MTRMWS
METAR KMWS 241200Z 30506G12KT 07/M11 RMK SNOW DEPTH 1.00





000
SAUS46 KLOX 241157
MTR9L2
METAR K9L2 241155Z AUTO 31004KT 10SM CLR 03/M05 A3024 RMK AO2 SLP244
T00331050 10044 20006 58008 TSNO $





000
SAUS46 KLOX 241155
MTRLAX
METAR KLAX 241153Z 00000KT 10SM CLR 10/01 A3007 RMK AO2 SLP182
T01000011 10172 20089 58015





000
SAUS46 KLOX 241154
MTRMWS
METAR KMWS 241145Z 30004G07KT 06/M11 RMK SNOW DEPTH 1.00





000
SAUS46 KLOX 241149
MTRSDB
METAR KSDB 241148Z AUTO 07024G34KT 10SM CLR 09/M09 A3023 RMK AO2 PK
WND 07034/1145 SLP209 T00941094 10100 20072 58014 $





000
SAUS46 KLOX 241148
MTRCQT
METAR KCQT 241147Z AUTO 00000KT 10SM CLR 11/M01 A3007 RMK AO2 SLP180
T01061006 10139 20100 58015 $





000
SAUS46 KLOX 241136
MTRMWS
METAR KMWS 241130Z 23500G00KT MM/M10 RMK SNOW DEPTH 1.00





000
SAUS46 KLOX 241115
MTRMWS
METAR KMWS 241100Z 34503G07KT 07/M10 RMK SNOW DEPTH 1.00





000
SAUS46 KLOX 241057
MTR9L2
METAR K9L2 241055Z AUTO 17003KT 10SM CLR 02/M04 A3025 RMK AO2 SLP249
T00221044 FZRANO TSNO $





000
SAUS46 KLOX 241054
MTRLAX
METAR KLAX 241053Z 00000KT 10SM CLR 12/01 A3009 RMK AO2 SLP187
T01170006





000
SAUS46 KLOX 241054
MTRMWS
METAR KMWS 241045Z 35501G07KT 07/M11 RMK SNOW DEPTH 2.00





000
SAUS46 KLOX 241049
MTRSDB
METAR KSDB 241048Z AUTO 06016G29KT 10SM CLR 09/M09 A3024 RMK AO2 PK
WND 07029/1028 SLP211 T00941094 $





000
SAUS46 KLOX 241048
MTRCQT
METAR KCQT 241047Z AUTO 00000KT 10SM CLR 11/00 A3009 RMK AO2 SLP187
T01060000 $





000
SAUS46 KLOX 241036
MTRMWS
METAR KMWS 241030Z 23500G00KT MM/M11 RMK SNOW DEPTH 1.00





000
SAUS46 KLOX 241015
MTRMWS
METAR KMWS 241000Z 30004G09KT 07/M12 RMK SNOW DEPTH 1.00





000
SAUS46 KLOX 240957
MTR9L2
METAR K9L2 240955Z AUTO 17006KT 10SM CLR 02/M04 A3026 RMK AO2 SLP254
T00221044 FZRANO TSNO $





000
SAUS46 KLOX 240957
MTR9L2
METAR K9L2 240955Z AUTO 17006KT 10SM CLR 02/M04 A3026 RMK AO2 SLP254
T00221044 FZRANO TSNO $





000
SAUS46 KLOX 240954
MTRMWS
METAR KMWS 240945Z 29502G07KT 06/M12 RMK SNOW DEPTH 2.00





000
SAUS46 KLOX 240954
MTRLAX
METAR KLAX 240953Z 00000KT 10SM CLR 13/M01 A3010 RMK AO2 SLP191
T01281006





000
SAUS46 KLOX 240954
MTRLAX
METAR KLAX 240953Z 00000KT 10SM CLR 13/M01 A3010 RMK AO2 SLP191
T01281006





000
SAUS46 KLOX 240954
MTRMWS
METAR KMWS 240945Z 29502G07KT 06/M12 RMK SNOW DEPTH 2.00





000
SAUS46 KLOX 240950
MTRSDB
METAR KSDB 240948Z AUTO 05012G20KT 10SM CLR 09/M10 A3027 RMK AO2
SLP222 T00891100 $





000
SAUS46 KLOX 240948
MTRCQT
METAR KCQT 240947Z AUTO 00000KT 10SM CLR 12/M01 A3010 RMK AO2 SLP190
T01171006 $





000
SAUS46 KLOX 240936
MTRMWS
METAR KMWS 240930Z 23500G00KT MM/M11 RMK SNOW DEPTH 1.00





000
SAUS46 KLOX 240936
MTRMWS
METAR KMWS 240930Z 23500G00KT MM/M11 RMK SNOW DEPTH 1.00





000
SAUS46 KLOX 240915
MTRMWS
METAR KMWS 240900Z 12002G05KT 08/M11 RMK SNOW DEPTH 2.00





000
SAUS46 KLOX 240915
MTRMWS
METAR KMWS 240900Z 12002G05KT 08/M11 RMK SNOW DEPTH 2.00





000
SAUS46 KLOX 240857
MTR9L2
METAR K9L2 240855Z AUTO 00000KT 10SM CLR 03/M04 A3026 RMK AO2 SLP255
T00281044 58004 TSNO $





000
SAUS46 KLOX 240855
MTRLAX
METAR KLAX 240853Z 00000KT 10SM CLR 12/01 A3012 RMK AO2 SLP196
T01170006 56010





000
SAUS46 KLOX 240854
MTRMWS
METAR KMWS 240845Z 11005G12KT 08/M12 RMK SNOW DEPTH 2.00





000
SAUS46 KLOX 240849
MTRSDB
METAR KSDB 240848Z AUTO 05012G21KT 10SM CLR 09/M11 A3028 RMK AO2
SLP223 T00941106 58007 $





000
SAUS46 KLOX 240848
MTRCQT
METAR KCQT 240847Z AUTO 00000KT 10SM CLR 12/M01 A3011 RMK AO2 SLP195
T01171006 58008 $





000
SAUS46 KLOX 240836
MTRMWS
METAR KMWS 240830Z 23500G00KT MM/M11 RMK SNOW DEPTH 1.00





000
SAUS46 KLOX 240815
MTRMWS
METAR KMWS 240800Z 35503G10KT 08/M12 RMK SNOW DEPTH 2.00





000
SAUS46 KLOX 240756
MTR9L2
METAR K9L2 240755Z AUTO 36004KT 10SM CLR 02/M04 A3027 RMK AO2 SLP258
T00221044 401671028 FZRANO TSNO $





000
SAUS46 KLOX 240754
MTRLAX
METAR KLAX 240753Z 29004KT 10SM CLR 15/M01 A3012 RMK AO2 SLP196
T01501011 402220106





000
SAUS46 KLOX 240754
MTRMWS
METAR KMWS 240745Z 33003G06KT 08/M12 RMK SNOW DEPTH 1.00





000
SAUS46 KLOX 240749
MTRSDB
METAR KSDB 240748Z AUTO 03009KT 10SM CLR 09/M10 A3028 RMK AO2 SLP227
T00891100 401440056 $





000
SAUS46 KLOX 240748
MTRCQT
METAR KCQT 240747Z AUTO 00000KT 10SM CLR 13/M02 A3012 RMK AO2 SLP198
T01331022 402390100 $





000
SAUS46 KLOX 240736
MTRMWS
METAR KMWS 240730Z 23500G00KT MM/M11 RMK SNOW DEPTH 2.00





000
SAUS46 KLOX 240715
MTRMWS
METAR KMWS 240700Z 23500G00KT 07/M13 RMK SNOW DEPTH 1.00





000
SAUS46 KLOX 240658
MTR9L2
METAR K9L2 240655Z AUTO 00000KT 10SM CLR 03/M04 A3028 RMK AO2 SLP265
T00281044 TSNO $





000
SAUS46 KLOX 240654
MTRMWS
METAR KMWS 240645Z 32007G12KT 07/M13 RMK SNOW DEPTH 2.00





000
SAUS46 KLOX 240654
MTRLAX
METAR KLAX 240653Z 10003KT 10SM CLR 14/03 A3014 RMK AO2 SLP203
T01390028





000
SAUS46 KLOX 240649
MTRSDB
METAR KSDB 240648Z AUTO 01004KT 10SM CLR 09/M11 A3030 RMK AO2 SLP235
T00941106 $





000
SAUS46 KLOX 240648
MTRCQT
METAR KCQT 240647Z AUTO 00000KT 10SM CLR 13/01 A3014 RMK AO2 SLP204
T01280006 $





000
SAUS46 KLOX 240636
MTRMWS
METAR KMWS 240630Z 23500G00KT MM/M12 RMK SNOW DEPTH 2.00





000
SAUS46 KLOX 240615
MTRMWS
METAR KMWS 240600Z 31508G11KT 08/M14 RMK SNOW DEPTH 2.00





000
SAUS46 KLOX 240558
MTR9L2
METAR K9L2 240555Z AUTO 00000KT 10SM CLR 03/M05 A3027 RMK AO2 SLP266
T00331050 10167 20033 51004 TSNO $





000
SAUS46 KLOX 240554
MTRMWS
METAR KMWS 240545Z 32507G12KT 08/M13 RMK SNOW DEPTH 2.00





000
SAUS46 KLOX 240554
MTRLAX
METAR KLAX 240553Z VRB03KT 10SM CLR 14/04 A3015 RMK AO2 SLP206
T01440039 10189 20122 53001





000
SAUS46 KLOX 240549
MTRSDB
METAR KSDB 240548Z AUTO 03012KT 10SM CLR 09/M11 A3030 RMK AO2 SLP236
T00891106 10128 20083 53001 $





000
SAUS46 KLOX 240548
MTRCQT
METAR KCQT 240547Z AUTO 00000KT 10SM CLR 13/02 A3014 RMK AO2 SLP203
T01330017 10211 20133 56001 $





000
SAUS46 KLOX 240536
MTRMWS
METAR KMWS 240530Z 23500G00KT MM/M13 RMK SNOW DEPTH 2.00





000
SAUS46 KLOX 240515
MTRMWS
METAR KMWS 240500Z 01004G07KT 08/M14 RMK SNOW DEPTH 2.00





000
SAUS46 KLOX 240458
MTR9L2
METAR K9L2 240455Z AUTO 05004KT 10SM CLR 04/M04 A3027 RMK AO2 SLP266
T00441044 TSNO $





000
SAUS46 KLOX 240454
MTRMWS
METAR KMWS 240445Z 23500G00KT MM/M14 RMK SNOW DEPTH 2.00





000
SAUS46 KLOX 240454
MTRLAX
METAR KLAX 240453Z 00000KT 10SM CLR 14/06 A3014 RMK AO2 SLP206
T01440061





000
SAUS46 KLOX 240449
MTRSDB
METAR KSDB 240448Z AUTO 05013KT 10SM CLR 10/M11 A3029 RMK AO2 SLP234
T01001106 $





000
SAUS46 KLOX 240448
MTRCQT
METAR KCQT 240447Z AUTO 00000KT 10SM CLR 14/02 A3014 RMK AO2 SLP204
T01390017 $





000
SAUS46 KLOX 240436
MTRMWS
METAR KMWS 240430Z 23500G00KT MM/M13 RMK SNOW DEPTH 2.00





000
SAUS46 KLOX 240415
MTRMWS
METAR KMWS 240400Z 31501G06KT 07/M14 RMK SNOW DEPTH 2.00





000
SAUS46 KLOX 240358
MTR9L2
METAR K9L2 240355Z AUTO 00000KT 10SM CLR 07/M04 A3027 RMK AO2 SLP264
T00671044 TSNO $





000
SAUS46 KLOX 240354
MTRMWS
METAR KMWS 240345Z 36004G08KT 07/M14 RMK SNOW DEPTH 2.00





000
SAUS46 KLOX 240354
MTRLAX
METAR KLAX 240353Z 00000KT 10SM CLR 16/08 A3013 RMK AO2 SLP203
T01560083





000
SAUS46 KLOX 240349
MTRSDB
METAR KSDB 240348Z AUTO 03009KT 10SM CLR 08/M08 A3029 RMK AO2 SLP237
T00831078 $





000
SAUS46 KLOX 240349
MTRSDB
METAR KSDB 240348Z AUTO 03009KT 10SM CLR 08/M08 A3029 RMK AO2 SLP237
T00831078 $





000
SAUS46 KLOX 240348
MTRCQT
METAR KCQT 240347Z AUTO 00000KT 10SM CLR 16/01 A3013 RMK AO2 SLP203
T01560011 $





000
SAUS46 KLOX 240348
MTRCQT
METAR KCQT 240347Z AUTO 00000KT 10SM CLR 16/01 A3013 RMK AO2 SLP203
T01560011 $





000
SAUS46 KLOX 240336
MTRMWS
METAR KMWS 240330Z 23500G00KT MM/M13 RMK SNOW DEPTH 2.00





000
SAUS46 KLOX 240336
MTRMWS
METAR KMWS 240330Z 23500G00KT MM/M13 RMK SNOW DEPTH 2.00





000
SAUS46 KLOX 240315
MTRMWS
METAR KMWS 240300Z 29500G04KT 07/M12 RMK SNOW DEPTH 2.00





000
SAUS46 KLOX 240256
MTR9L2
METAR K9L2 240255Z AUTO 30006KT 10SM CLR 07/M05 A3026 RMK AO2 SLP265
T00721050 51009 TSNO $





000
SAUS46 KLOX 240254
MTRLAX
METAR KLAX 240253Z 25004KT 10SM CLR 16/08 A3014 RMK AO2 SLP206
T01560083 53003





000
SAUS46 KLOX 240254
MTRMWS
METAR KMWS 240245Z 31004G07KT 07/M12 RMK SNOW DEPTH 2.00





000
SAUS46 KLOX 240249
MTRSDB
METAR KSDB 240248Z AUTO 03008KT 10SM CLR 08/M09 A3029 RMK AO2 SLP243
T00831089 53005 $





000
SAUS46 KLOX 240248
MTRCQT
METAR KCQT 240247Z AUTO 00000KT 10SM CLR 17/M01 A3014 RMK AO2 SLP206
T01671006 53005 $





000
SAUS46 KLOX 240236
MTRMWS
METAR KMWS 240230Z 23500G00KT MM/M11 RMK SNOW DEPTH 2.00





000
SAUS46 KLOX 240215
MTRMWS
METAR KMWS 240200Z 33004G06KT 08/M11 RMK SNOW DEPTH 2.00





000
SAUS46 KLOX 240155
MTRLAX
METAR KLAX 240153Z 31003KT 10SM CLR 17/07 A3014 RMK AO2 SLP205
T01670072





000
SAUS46 KLOX 240154
MTRMWS
METAR KMWS 240145Z 32004G09KT 08/M11 RMK SNOW DEPTH 2.00





000
SAUS46 KLOX 240149
MTRSDB
METAR KSDB 240148Z AUTO 06008KT 10SM CLR 10/M11 A3029 RMK AO2 SLP236
T01001111 $





000
SAUS46 KLOX 240149
MTRCQT
METAR KCQT 240147Z AUTO 00000KT 10SM CLR 18/M04 A3013 RMK AO2 SLP203
T01781039 $





000
SAUS46 KLOX 240136
MTRMWS
METAR KMWS 240130Z 23500G00KT MM/M09 RMK SNOW DEPTH 2.00





000
SAUS46 KLOX 240115
MTRMWS
METAR KMWS 240100Z 32504G07KT 11/M10 RMK SNOW DEPTH 2.00





000
SAUS46 KLOX 240058
MTR9L2
METAR K9L2 240055Z AUTO 00000KT 10SM CLR 15/M09 A3024 RMK AO2 SLP250
T01501089 $





000
SAUS46 KLOX 240054
MTRMWS
METAR KMWS 240045Z 30503G04KT 11/M11 RMK SNOW DEPTH 2.00





000
SAUS46 KLOX 240054
MTRLAX
METAR KLAX 240053Z 29007KT 10SM CLR 18/03 A3013 RMK AO2 SLP204
T01780028





000
SAUS46 KLOX 240049
MTRSDB
METAR KSDB 240048Z AUTO 06008KT 10SM CLR 11/M10 A3028 RMK AO2 SLP232
T01111100 $





000
SAUS46 KLOX 240048
MTRCQT
METAR KCQT 240047Z AUTO 27003KT 10SM CLR 20/M04 A3013 RMK AO2 SLP201
T02001044 $





000
SAUS46 KLOX 240036
MTRMWS
METAR KMWS 240030Z 23500G00KT MM/M11 RMK SNOW DEPTH 2.00





000
SAUS46 KLOX 240015
MTRMWS
METAR KMWS 240000Z 30503G05KT 13/M13 RMK SNOW DEPTH 2.00





000
SAUS46 KLOX 232357
MTR9L2
METAR K9L2 232355Z AUTO 00000KT 10SM CLR 17/M11 A3023 RMK AO2 SLP245
T01671111 10167 20056 56015 $





000
SAUS46 KLOX 232355
MTRLAX
METAR KLAX 232353Z 27008KT 10SM CLR 18/01 A3013 RMK AO2 SLP203
T01830006 10222 20183 56012





000
SAUS46 KLOX 232354
MTRMWS
METAR KMWS 232345Z 35501G03KT 13/M13 RMK SNOW DEPTH 2.00





000
SAUS46 KLOX 232349
MTRSDB
METAR KSDB 232348Z AUTO 06010G17KT 10SM CLR 13/M11 A3028 RMK AO2
SLP227 T01281106 10144 20106 55008 $





000
SAUS46 KLOX 232349
MTRCQT
METAR KCQT 232347Z AUTO VRB06KT 10SM CLR 21/M07 A3012 RMK AO2 SLP200
T02111067 10239 20194 56012





000
SAUS46 KLOX 232336
MTRMWS
METAR KMWS 232330Z 23500G00KT MM/M13 RMK SNOW DEPTH 2.00





000
SAUS46 KLOX 232315
MTRMWS
METAR KMWS 232300Z 32503G04KT 15/M13 RMK SNOW DEPTH 2.00





000
SAUS46 KLOX 232256
MTR9L2
METAR K9L2 232255Z AUTO 00000KT 10SM CLR 16/M12 A3024 RMK AO2 SLP247
T01611117 $





000
SAUS46 KLOX 232254
MTRMWS
METAR KMWS 232245Z 31502G03KT 16/M12 RMK SNOW DEPTH 2.00





000
SAUS46 KLOX 232254
MTRLAX
METAR KLAX 232253Z 27009KT 10SM FEW110 19/03 A3014 RMK AO2 SLP205
T01890033





000
SAUS46 KLOX 232249
MTRSDB
METAR KSDB 232248Z AUTO 07015G22KT 10SM CLR 13/M13 A3028 RMK AO2
SLP225 T01331128 $





000
SAUS46 KLOX 232249
MTRCQT
METAR KCQT 232247Z AUTO 28005KT 10SM CLR 23/M09 A3013 RMK AO2 SLP201
T02281089





000
SAUS46 KLOX 232236
MTRMWS
METAR KMWS 232230Z 23500G00KT MM/M11 RMK SNOW DEPTH 2.00





000
SAUS46 KLOX 232215
MTRMWS
METAR KMWS 232200Z 27502G05KT 15/M12 RMK SNOW DEPTH 2.00





000
SAUS46 KLOX 232156
MTR9L2
METAR K9L2 232155Z AUTO 00000KT 10SM CLR 16/M12 A3025 RMK AO2 SLP252
T01561122 $





000
SAUS46 KLOX 232156
MTR9L2
METAR K9L2 232155Z AUTO 00000KT 10SM CLR 16/M12 A3025 RMK AO2 SLP252
T01561122 $





000
SAUS46 KLOX 232154
MTRLAX
METAR KLAX 232153Z 25008KT 10SM FEW110 22/M08 A3015 RMK AO2 SLP208
T02171083





000
SAUS46 KLOX 232154
MTRLAX
METAR KLAX 232153Z 25008KT 10SM FEW110 22/M08 A3015 RMK AO2 SLP208
T02171083





000
SAUS46 KLOX 232154
MTRMWS
METAR KMWS 232145Z 31502G04KT 15/M13 RMK SNOW DEPTH 2.00





000
SAUS46 KLOX 232154
MTRMWS
METAR KMWS 232145Z 31502G04KT 15/M13 RMK SNOW DEPTH 2.00





000
SAUS46 KLOX 232149
MTRSDB
METAR KSDB 232148Z AUTO 07015G21KT 10SM CLR 13/M11 A3028 RMK AO2
SLP228 T01331111 $





000
SAUS46 KLOX 232149
MTRSDB
METAR KSDB 232148Z AUTO 07015G21KT 10SM CLR 13/M11 A3028 RMK AO2
SLP228 T01331111 $





000
SAUS46 KLOX 232148
MTRCQT
METAR KCQT 232147Z AUTO 00000KT 10SM CLR 23/M08 A3014 RMK AO2 SLP204
T02331078





000
SAUS46 KLOX 232148
MTRCQT
METAR KCQT 232147Z AUTO 00000KT 10SM CLR 23/M08 A3014 RMK AO2 SLP204
T02331078





000
SAUS46 KLOX 232136
MTRMWS
METAR KMWS 232130Z 23500G00KT MM/M13 RMK SNOW DEPTH 2.00





000
SAUS46 KLOX 232115
MTRMWS
METAR KMWS 232100Z 31502G03KT 15/M13 RMK SNOW DEPTH 2.00





000
SAUS46 KLOX 232054
MTRMWS
METAR KMWS 232045Z 32502G04KT 16/M12 RMK SNOW DEPTH 2.00





000
SAUS46 KLOX 232054
MTRLAX
METAR KLAX 232053Z 26005KT 10SM FEW120 SCT160 22/M08 A3016 RMK AO2
SLP213 T02171083 58030





000
SAUS46 KLOX 232049
MTRSDB
METAR KSDB 232048Z AUTO 06012G19KT 10SM CLR 13/M11 A3030 RMK AO2
SLP235 T01331111 58017 $





000
SAUS46 KLOX 232048
MTRCQT
METAR KCQT 232047Z AUTO 12004KT 10SM CLR 24/M09 A3016 RMK AO2 SLP211
T02391094 58029





000
SAUS46 KLOX 232036
MTRMWS
METAR KMWS 232030Z 23500G00KT MM/M13 RMK SNOW DEPTH 2.00





000
SAUS46 KLOX 232015
MTRMWS
METAR KMWS 232000Z 32502G04KT 17/M11 RMK SNOW DEPTH 2.00





000
SAUS46 KLOX 231958
MTR9L2
METAR K9L2 231955Z AUTO 00000KT 10SM CLR 12/M06 A3033 RMK AO2 SLP277
T01171061 $





000
SAUS46 KLOX 231954
MTRMWS
METAR KMWS 231945Z 32001G03KT 16/M13 RMK SNOW DEPTH 2.00





000
SAUS46 KLOX 231954
MTRLAX
METAR KLAX 231953Z 22005KT 10SM FEW120 SCT160 21/M08 A3021 RMK AO2
SLP228 T02111083





000
SAUS46 KLOX 231949
MTRSDB
METAR KSDB 231948Z AUTO 06013G23KT 10SM CLR 13/M10 A3033 RMK AO2
SLP243 T01331100 $





000
SAUS46 KLOX 231948
MTRCQT
METAR KCQT 231947Z AUTO 00000KT 10SM CLR 23/M09 A3020 RMK AO2 SLP226
T02281094





000
SAUS46 KLOX 231936
MTRMWS
METAR KMWS 231930Z 23500G00KT MM/M14 RMK SNOW DEPTH 2.00





000
SAUS46 KLOX 231915
MTRMWS
METAR KMWS 231900Z 31001G03KT 17/M16 RMK SNOW DEPTH 2.00





000
SAUS46 KLOX 231858
MTR9L2
METAR K9L2 231855Z AUTO 16003KT 10SM CLR 08/M02 A3036 RMK AO2 SLP290
T00831022 TSNO $





000
SAUS46 KLOX 231854
MTRMWS
METAR KMWS 231845Z 03001G03KT 17/M17 RMK SNOW DEPTH 2.00





000
SAUS46 KLOX 231854
MTRLAX
METAR KLAX 231853Z 00000KT 10SM FEW120 SCT160 21/M06 A3024 RMK AO2
SLP240 T02061061





000
SAUS46 KLOX 231849
MTRSDB
METAR KSDB 231848Z AUTO 05012G19KT 10SM CLR 12/M09 A3036 RMK AO2
SLP256 T01171089 $





000
SAUS46 KLOX 231848
MTRCQT
METAR KCQT 231847Z AUTO 00000KT 10SM CLR 21/M08 A3024 RMK AO2 SLP238
T02111083





000
SAUS46 KLOX 231836
MTRMWS
METAR KMWS 231830Z 23500G00KT MM/M16 RMK SNOW DEPTH 2.00





000
SAUS46 KLOX 231815
MTRMWS
METAR KMWS 231800Z  0501G02KT 15/M16 RMK SNOW DEPTH 2.00





000
SAUS46 KLOX 231756
MTR9L2
METAR K9L2 231755Z AUTO 00000KT 10SM CLR 06/M03 A3037 RMK AO2 SLP296
T00561028 10067 21028 53010 TSNO $





000
SAUS46 KLOX 231754
MTRMWS
METAR KMWS 231745Z 12002G03KT 15/M17 RMK SNOW DEPTH 2.00





000
SAUS46 KLOX 231754
MTRLAX
METAR KLAX 231753Z 00000KT 10SM FEW110 SCT160 18/M06 A3026 RMK AO2
SLP245 T01831056 10183 20106 53008





000
SAUS46 KLOX 231749
MTRSDB
METAR KSDB 231748Z AUTO 04012KT 10SM CLR 11/M08 A3036 RMK AO2 SLP258
T01061083 10106 20056 53009 $





000
SAUS46 KLOX 231748
MTRCQT
METAR KCQT 231747Z AUTO 00000KT 10SM CLR 19/M09 A3025 RMK AO2 SLP241
T01941089 10194 20100 53004





000
SAUS46 KLOX 231736
MTRMWS
METAR KMWS 231730Z 23500G00KT MM/M18 RMK SNOW DEPTH 2.00





000
SAUS46 KLOX 231656
MTR9L2
METAR K9L2 231655Z AUTO 00000KT 10SM CLR 02/M04 A3036 RMK AO2 SLP293
T00221044 FZRANO TSNO $





000
SAUS46 KLOX 231656
MTR9L2
METAR K9L2 231655Z AUTO 00000KT 10SM CLR 02/M04 A3036 RMK AO2 SLP293
T00221044 FZRANO TSNO $





000
SAUS46 KLOX 231654
MTRMWS
METAR KMWS 231645Z 34001G02KT 13/M19 RMK SNOW DEPTH 2.00





000
SAUS46 KLOX 231654
MTRLAX
METAR KLAX 231653Z 04005KT 10SM FEW110 SCT160 17/M06 A3024 RMK AO2
SLP239 ACSL DSNT E T01671061





000
SAUS46 KLOX 231654
MTRMWS
METAR KMWS 231645Z 34001G02KT 13/M19 RMK SNOW DEPTH 2.00





000
SAUS46 KLOX 231654
MTRLAX
METAR KLAX 231653Z 04005KT 10SM FEW110 SCT160 17/M06 A3024 RMK AO2
SLP239 ACSL DSNT E T01671061





000
SAUS46 KLOX 231649
MTRSDB
METAR KSDB 231648Z AUTO 05010KT 10SM CLR 09/M11 A3034 RMK AO2 SLP251
T00941111 $





000
SAUS46 KLOX 231649
MTRSDB
METAR KSDB 231648Z AUTO 05010KT 10SM CLR 09/M11 A3034 RMK AO2 SLP251
T00941111 $





000
SAUS46 KLOX 231648
MTRCQT
METAR KCQT 231647Z AUTO 00000KT 10SM CLR 16/M04 A3024 RMK AO2 SLP238
T01611044





000
SAUS46 KLOX 231615
MTRMWS
METAR KMWS 231600Z 11001G02KT 10/M24 RMK SNOW DEPTH 2.00





000
SAUS46 KLOX 231558
MTR9L2
METAR K9L2 231555Z AUTO 00000KT 10SM CLR 01/M04 A3034 RMK AO2 SLP288
T00061039 FZRANO TSNO $





000
SAUS46 KLOX 231554
MTRMWS
METAR KMWS 231545Z 13000G02KT 08/M23 RMK SNOW DEPTH 2.00





000
SAUS46 KLOX 231554
MTRLAX
METAR KLAX 231553Z 05003KT 10SM FEW110 SCT160 13/M05 A3024 RMK AO2
SLP239 ACSL DSNT E T01331050





000
SAUS46 KLOX 231549
MTRSDB
METAR KSDB 231548Z AUTO 04012KT 10SM CLR 08/M12 A3033 RMK AO2 SLP249
T00781122 $





000
SAUS46 KLOX 231548
MTRCQT
METAR KCQT 231547Z AUTO 00000KT 10SM CLR 12/M04 A3024 RMK AO2 SLP239
T01221044





000
SAUS46 KLOX 231548
MTRCQT
METAR KCQT 231547Z AUTO 00000KT 10SM CLR 12/M04 A3024 RMK AO2 SLP239
T01221044





000
SAUS46 KLOX 231515
MTRMWS
METAR KMWS 231500Z 12003G04KT 07/M22 RMK SNOW DEPTH 2.00





000
SAUS46 KLOX 231457
MTR9L2
METAR K9L2 231455Z AUTO 00000KT 10SM CLR M03/M06 A3034 RMK AO2
SLP290 T10281056 53007 FZRANO TSNO $





000
SAUS46 KLOX 231454
MTRLAX
METAR KLAX 231453Z 05004KT 10SM FEW200 11/M05 A3024 RMK AO2 SLP238
ACSL DSNT E T01111050 53007





000
SAUS46 KLOX 231454
MTRMWS
METAR KMWS 231445Z 18004G04KT 07/M21 RMK SNOW DEPTH 2.00





000
SAUS46 KLOX 231449
MTRSDB
METAR KSDB 231448Z AUTO 04012KT 10SM CLR 06/M12 A3033 RMK AO2 SLP254
T00561117 53002 $





000
SAUS46 KLOX 231448
MTRCQT
METAR KCQT 231447Z AUTO 02003KT 10SM CLR 12/M06 A3023 RMK AO2 SLP238
T01171061 53006





000
SAUS46 KLOX 231415
MTRMWS
METAR KMWS 231400Z 02003G03KT 06/M21 RMK SNOW DEPTH 1.00





000
SAUS46 KLOX 231357
MTR9L2
METAR K9L2 231355Z AUTO 00000KT 10SM CLR M02/M05 A3033 RMK AO2
SLP285 T10221050 FZRANO TSNO $





000
SAUS46 KLOX 231354
MTRMWS
METAR KMWS 231345Z 21501G02KT 07/M20 RMK SNOW DEPTH 2.00





000
SAUS46 KLOX 231354
MTRLAX
METAR KLAX 231353Z 07005KT 10SM CLR 12/M04 A3023 RMK AO2 SLP235
T01171044





000
SAUS46 KLOX 231349
MTRSDB
METAR KSDB 231348Z AUTO 05008KT 10SM CLR 06/M12 A3032 RMK AO2 SLP249
T00611117 $





000
SAUS46 KLOX 231348
MTRCQT
METAR KCQT 231347Z AUTO 36003KT 10SM CLR 11/M04 A3023 RMK AO2 SLP235
T01111044





000
SAUS46 KLOX 231315
MTRMWS
METAR KMWS 231300Z 01502G02KT 06/M20 RMK SNOW DEPTH 2.00





000
SAUS46 KLOX 231257
MTR9L2
METAR K9L2 231255Z AUTO 27003KT 10SM CLR M01/M04 A3032 RMK AO2
SLP279 T10111044 FZRANO TSNO $





000
SAUS46 KLOX 231254
MTRMWS
METAR KMWS 231245Z 03003G04KT 05/M21 RMK SNOW DEPTH 1.00





000
SAUS46 KLOX 231254
MTRLAX
METAR KLAX 231253Z 03006KT 10SM FEW200 13/M05 A3021 RMK AO2 SLP228
T01281050





000
SAUS46 KLOX 231249
MTRSDB
METAR KSDB 231248Z AUTO 05011KT 10SM CLR 07/M12 A3031 RMK AO2 SLP246
T00671117 $





000
SAUS46 KLOX 231248
MTRCQT
METAR KCQT 231247Z AUTO 00000KT 10SM CLR 10/M02 A3021 RMK AO2 SLP229
T01001022





000
SAUS46 KLOX 231215
MTRMWS
METAR KMWS 231200Z 03504G06KT 06/M21 RMK SNOW DEPTH 1.00





000
SAUS46 KLOX 231157
MTR9L2
METAR K9L2 231155Z AUTO 16003KT 10SM CLR 00/M04 A3032 RMK AO2 SLP276
T00001039 10072 20000 58002 FZRANO TSNO $





000
SAUS46 KLOX 231154
MTRLAX
METAR KLAX 231153Z 06006KT 10SM FEW200 12/M04 A3022 RMK AO2 SLP231
T01221039 10172 20117 58007





000
SAUS46 KLOX 231154
MTRMWS
METAR KMWS 231145Z 04503G04KT 06/M22 RMK SNOW DEPTH 1.00





000
SAUS46 KLOX 231149
MTRSDB
METAR KSDB 231148Z AUTO 07011KT 10SM CLR 08/M12 A3033 RMK AO2 SLP245
T00831122 10100 20078 58006 $





000
SAUS46 KLOX 231148
MTRCQT
METAR KCQT 231147Z AUTO 00000KT 10SM CLR 12/M04 A3022 RMK AO2 SLP231
T01221039 10178 20117 58005





000
SAUS46 KLOX 231115
MTRMWS
METAR KMWS 231100Z 03003G04KT 06/M19 RMK SNOW DEPTH 1.00





000
SAUS46 KLOX 231057
MTR9L2
METAR K9L2 231055Z AUTO 00000KT 10SM CLR 00/M04 A3034 RMK AO2 SLP282
T00001044 FZRANO TSNO $





000
SAUS46 KLOX 231054
MTRLAX
METAR KLAX 231053Z 02006KT 10SM SCT200 14/M06 A3023 RMK AO2 SLP235
T01441061





000
SAUS46 KLOX 231054
MTRMWS
METAR KMWS 231045Z 20501G01KT 07/M18 RMK SNOW DEPTH 2.00





000
SAUS46 KLOX 231050
MTRSDB
METAR KSDB 231048Z AUTO 07012KT 10SM CLR 08/M12 A3034 RMK AO2 SLP249
T00831122 $





000
SAUS46 KLOX 231049
MTRCQT
METAR KCQT 231047Z AUTO 00000KT 10SM CLR 12/M02 A3023 RMK AO2 SLP234
T01221022





000
SAUS46 KLOX 231036
MTRMWS
METAR KMWS 231030Z 23500G00KT MM/M17 RMK SNOW DEPTH 2.00





000
SAUS46 KLOX 231015
MTRMWS
METAR KMWS 231000Z 18506G08KT 07/M16 RMK SNOW DEPTH 1.00





000
SAUS46 KLOX 230958
MTR9L2
METAR K9L2 230955Z AUTO 30003KT 10SM CLR 01/M04 A3033 RMK AO2 SLP280
T00111039 FZRANO TSNO $





000
SAUS46 KLOX 230958
MTR9L2
METAR K9L2 230955Z AUTO 30003KT 10SM CLR 01/M04 A3033 RMK AO2 SLP280
T00111039 FZRANO TSNO $





000
SAUS46 KLOX 230954
MTRMWS
METAR KMWS 230945Z 17504G06KT 07/M21 RMK SNOW DEPTH 1.00





000
SAUS46 KLOX 230954
MTRLAX
METAR KLAX 230953Z 01006KT 10SM SCT200 15/M04 A3023 RMK AO2 SLP234
T01501044





000
SAUS46 KLOX 230949
MTRSDB
METAR KSDB 230948Z AUTO 07013KT 10SM CLR 08/M12 A3034 RMK AO2 SLP249
T00831122 $





000
SAUS46 KLOX 230948
MTRCQT
METAR KCQT 230947Z AUTO 00000KT 10SM CLR 13/M03 A3023 RMK AO2 SLP235
T01331028





000
SAUS46 KLOX 230915
MTRMWS
METAR KMWS 230900Z 06502G03KT 06/M25 RMK SNOW DEPTH 1.00





000
SAUS46 KLOX 230900
MTR9L2
METAR K9L2 230855Z AUTO 00000KT 10SM CLR 02/M03 A3033 RMK AO2 SLP277
T00171033 58004 FZRANO TSNO $





000
SAUS46 KLOX 230855
MTRLAX
METAR KLAX 230853Z 01007KT 10SM SCT200 16/M03 A3024 RMK AO2 SLP236
T01611028 58000





000
SAUS46 KLOX 230854
MTRMWS
METAR KMWS 230845Z 05003G03KT 07/M22 RMK SNOW DEPTH 1.00





000
SAUS46 KLOX 230850
MTRSDB
METAR KSDB 230848Z AUTO 06012KT 10SM CLR 08/M13 A3035 RMK AO2 SLP251
T00831128 55001 $





000
SAUS46 KLOX 230848
MTRCQT
METAR KCQT 230847Z AUTO 00000KT 10SM CLR 15/M03 A3023 RMK AO2 SLP236
T01501033 50000





000
SAUS46 KLOX 230815
MTRMWS
METAR KMWS 230800Z 23001G01KT 06/M19 RMK SNOW DEPTH 1.00





000
SAUS46 KLOX 230800
MTR9L2
METAR K9L2 230755Z AUTO 33005KT 10SM CLR 04/M03 A3033 RMK AO2 SLP277
T00441028 401561028 TSNO $





000
SAUS46 KLOX 230800
MTR9L2
METAR K9L2 230755Z AUTO 33005KT 10SM CLR 04/M03 A3033 RMK AO2 SLP277
T00441028 401561028 TSNO $





000
SAUS46 KLOX 230757
MTRMWS
METAR KMWS 230745Z 03002G03KT 07/M20 RMK SNOW DEPTH 1.00





000
SAUS46 KLOX 230757
MTRMWS
METAR KMWS 230745Z 03002G03KT 07/M20 RMK SNOW DEPTH 1.00





000
SAUS46 KLOX 230754
MTRLAX
METAR KLAX 230753Z 02005KT 10SM BKN200 16/02 A3023 RMK AO2 SLP236
T01560022 402280089





000
SAUS46 KLOX 230754
MTRLAX
METAR KLAX 230753Z 02005KT 10SM BKN200 16/02 A3023 RMK AO2 SLP236
T01560022 402280089





000
SAUS46 KLOX 230749
MTRCQT
METAR KCQT 230747Z AUTO 00000KT 10SM CLR 15/00 A3023 RMK AO2 SLP237
T01500000 402390083





000
SAUS46 KLOX 230749
MTRSDB
METAR KSDB 230748Z AUTO 07015KT 10SM CLR 09/M13 A3034 RMK AO2 SLP247
T00941133 401330072 $





000
SAUS46 KLOX 230749
MTRSDB
METAR KSDB 230748Z AUTO 07015KT 10SM CLR 09/M13 A3034 RMK AO2 SLP247
T00941133 401330072 $





000
SAUS46 KLOX 230749
MTRCQT
METAR KCQT 230747Z AUTO 00000KT 10SM CLR 15/00 A3023 RMK AO2 SLP237
T01500000 402390083





000
SAUS46 KLOX 230715
MTRMWS
METAR KMWS 230700Z 04503G04KT 06/M23 RMK SNOW DEPTH 1.00





000
SAUS46 KLOX 230658
MTR9L2
METAR K9L2 230655Z AUTO 33003KT 10SM CLR 06/M02 A3034 RMK AO2 SLP284
T00611017 TSNO $





000
SAUS46 KLOX 230654
MTRLAX
METAR KLAX 230653Z 05004KT 10SM BKN200 16/07 A3024 RMK AO2 SLP238
T01560072





000
SAUS46 KLOX 230649
MTRSDB
METAR KSDB 230648Z AUTO 07013KT 10SM FEW120 09/M13 A3035 RMK AO2
SLP253 T00941128 $





000
SAUS46 KLOX 230648
MTRCQT
METAR KCQT 230647Z AUTO 00000KT 10SM CLR 16/01 A3024 RMK AO2 SLP239
T01610006





000
SAUS46 KLOX 230615
MTRMWS
METAR KMWS 230600Z  0504G05KT 07/M26 RMK SNOW DEPTH 2.00





000
SAUS46 KLOX 230600
MTR9L2
METAR K9L2 230555Z AUTO 34006KT 10SM CLR 07/M02 A3034 RMK AO2 SLP285
T00721017 10144 20072 51011 TSNO $





000
SAUS46 KLOX 230554
MTRLAX
METAR KLAX 230553Z 12004KT 10SM SCT200 BKN250 16/08 A3024 RMK AO2
SLP238 T01610078 10178 20150 51007





000
SAUS46 KLOX 230549
MTRSDB
METAR KSDB 230548Z AUTO 06008KT 10SM OVC120 09/M13 A3035 RMK AO2
SLP252 T00941133 10111 20094 $





000
SAUS46 KLOX 230548
MTRCQT
METAR KCQT 230547Z AUTO 11004KT 10SM CLR 17/02 A3023 RMK AO2 SLP236
T01720017 10222 20156 51006





000
SAUS46 KLOX 230515
MTRMWS
METAR KMWS 230500Z 12501G02KT 07/M22 RMK SNOW DEPTH 2.00





000
SAUS46 KLOX 230500
MTR9L2
METAR K9L2 230455Z AUTO 02004KT 10SM CLR 07/M01 A3033 RMK AO2 SLP285
T00721006 TSNO $





000
SAUS46 KLOX 230454
MTRLAX
METAR KLAX 230453Z 09004KT 10SM BKN200 OVC250 16/08 A3023 RMK AO2
SLP236 T01560078





000
SAUS46 KLOX 230450
MTRSDB
METAR KSDB 230448Z AUTO 06007KT 09/M13 A3035 RMK AO2 SLP252
T00941128 $





000
SAUS46 KLOX 230448
MTRCQT
METAR KCQT 230447Z AUTO 00000KT 10SM CLR 17/07 A3023 RMK AO2 SLP236
T01670072





000
SAUS46 KLOX 230415
MTRMWS
METAR KMWS 230400Z 30503G04KT 08/M20 RMK SNOW DEPTH 2.00





000
SAUS46 KLOX 230358
MTR9L2
METAR K9L2 230355Z AUTO 00000KT 10SM CLR 08/M01 A3032 RMK AO2 SLP281
T00781011 TSNO $





000
SAUS46 KLOX 230354
MTRLAX
METAR KLAX 230353Z 00000KT 10SM OVC200 17/07 A3023 RMK AO2 SLP236
T01720067





000
SAUS46 KLOX 230354
MTRMWS
METAR KMWS 230345Z 29503G03KT 08/M22 RMK SNOW DEPTH 2.00





000
SAUS46 KLOX 230349
MTRSDB
METAR KSDB 230348Z AUTO 05006KT 10SM CLR 10/M13 A3034 RMK AO2 SLP252
T01001128





000
SAUS46 KLOX 230348
MTRCQT
METAR KCQT 230347Z AUTO 00000KT 10SM CLR 17/07 A3022 RMK AO2 SLP234
T01670072





000
SAUS46 KLOX 230348
MTRCQT
METAR KCQT 230347Z AUTO 00000KT 10SM CLR 17/07 A3022 RMK AO2 SLP234
T01670072





000
SAUS46 KLOX 230315
MTRMWS
METAR KMWS 230300Z 04503G04KT 08/M19 RMK SNOW DEPTH 2.00





000
SAUS46 KLOX 230300
MTR9L2
METAR K9L2 230255Z AUTO 33003KT 10SM CLR 09/M01 A3030 RMK AO2 SLP277
T00891006 53007 TSNO $





000
SAUS46 KLOX 230254
MTRLAX
METAR KLAX 230253Z 25005KT 10SM BKN200 17/07 A3022 RMK AO2 SLP232
T01670067 53010





000
SAUS46 KLOX 230254
MTRMWS
METAR KMWS 230245Z 05006G07KT 07/M19 RMK SNOW DEPTH 2.00





000
SAUS46 KLOX 230249
MTRSDB
METAR KSDB 230248Z AUTO 07010KT 10SM CLR 09/M12 A3034 RMK AO2 SLP252
T00941117 53009





000
SAUS46 KLOX 230248
MTRCQT
METAR KCQT 230247Z AUTO 00000KT 10SM CLR 17/07 A3021 RMK AO2 SLP231
T01670072 53013





000
SAUS46 KLOX 230236
MTRMWS
METAR KMWS 230230Z 23500G00KT MM/M15 RMK SNOW DEPTH 1.00





000
SAUS46 KLOX 230215
MTRMWS
METAR KMWS 230200Z 01001G02KT 07/M12 RMK SNOW DEPTH 1.00





000
SAUS46 KLOX 230200
MTR9L2
METAR K9L2 230155Z AUTO 00000KT 10SM CLR 11/M04 A3030 RMK AO2 SLP273
T01111039 TSNO $





000
SAUS46 KLOX 230155
MTRLAX
METAR KLAX 230153Z 24005KT 10SM FEW150 SCT200 SCT250 16/08 A3021 RMK
AO2 SLP229 T01610083





000
SAUS46 KLOX 230154
MTRMWS
METAR KMWS 230145Z 13500G01KT 08/M15 RMK SNOW DEPTH 2.00





000
SAUS46 KLOX 230149
MTRSDB
METAR KSDB 230148Z AUTO 07009KT 10SM CLR 10/M11 A3032 RMK AO2 SLP247
T01001111





000
SAUS46 KLOX 230149
MTRCQT
METAR KCQT 230147Z AUTO 00000KT 10SM CLR 18/02 A3020 RMK AO2 SLP226
T01830022





000
SAUS46 KLOX 230136
MTRMWS
METAR KMWS 230130Z 23500G00KT MM/M12 RMK SNOW DEPTH 2.00





000
SAUS46 KLOX 230115
MTRMWS
METAR KMWS 230100Z 05501G02KT 08/M12 RMK SNOW DEPTH 2.00





000
SAUS46 KLOX 230115
MTRMWS
METAR KMWS 230100Z 05501G02KT 08/M12 RMK SNOW DEPTH 2.00





000
SAUS46 KLOX 230057
MTR9L2
METAR K9L2 230055Z AUTO 30004KT 10SM CLR 13/M04 A3029 RMK AO2 SLP267
T01281044 TSNO $





000
SAUS46 KLOX 230054
MTRMWS
METAR KMWS 230045Z 06001G02KT 10/M10 RMK SNOW DEPTH 2.00





000
SAUS46 KLOX 230054
MTRLAX
METAR KLAX 230053Z 27007KT 10SM FEW150 BKN200 BKN250 17/09 A3020 RMK
AO2 SLP225 T01720089





000
SAUS46 KLOX 230049
MTRSDB
METAR KSDB 230048Z AUTO 06008KT 10SM CLR 10/M11 A3031 RMK AO2 SLP243
T01001106





000
SAUS46 KLOX 230048
MTRCQT
METAR KCQT 230047Z AUTO 00000KT 10SM CLR 20/M02 A3019 RMK AO2 SLP222
T02001017





000
SAUS46 KLOX 230036
MTRMWS
METAR KMWS 230030Z 23500G00KT MM/M10 RMK SNOW DEPTH 2.00





000
SAUS46 KLOX 230015
MTRMWS
METAR KMWS 230000Z 03501G02KT 11/M09 RMK SNOW DEPTH 2.00





000
SAUS46 KLOX 222357
MTR9L2
METAR K9L2 222355Z AUTO 00000KT 10SM CLR 14/M09 A3028 RMK AO2 SLP264
T01441089 10156 20039 53000 TSNO $





000
SAUS46 KLOX 222355
MTRLAX
METAR KLAX 222353Z 27008KT 10SM SCT150 BKN200 BKN250 18/06 A3018 RMK
AO2 SLP221 T01830061 10228 20183 53005





000
SAUS46 KLOX 222354
MTRMWS
METAR KMWS 222345Z 02001G02KT 10/M09 RMK SNOW DEPTH 2.00





000
SAUS46 KLOX 222349
MTRSDB
METAR KSDB 222348Z AUTO 07011KT 10SM CLR 11/M11 A3031 RMK AO2 SLP239
T01111106 10133 20111 52001





000
SAUS46 KLOX 222349
MTRCQT
METAR KCQT 222347Z AUTO 27005KT 10SM CLR 22/M02 A3017 RMK AO2 SLP216
T02221022 10239 20183 53003





000
SAUS46 KLOX 222336
MTRMWS
METAR KMWS 222330Z 23500G00KT MM/M08 RMK SNOW DEPTH 2.00





000
SAUS46 KLOX 222315
MTRMWS
METAR KMWS 222300Z 34502G04KT 14/M08 RMK SNOW DEPTH 2.00





000
SAUS46 KLOX 222300
MTR9L2
METAR K9L2 222255Z AUTO 00000KT 10SM CLR 15/M11 A3027 RMK AO2 SLP260
T01501106 TSNO $





000
SAUS46 KLOX 222254
MTRLAX
METAR KLAX 222253Z 25006KT 10SM FEW100 SCT160 BKN250 20/M01 A3017
RMK AO2 SLP217 T02001011





000
SAUS46 KLOX 222254
MTRMWS
METAR KMWS 222245Z 22503G04KT 13/M08 RMK SNOW DEPTH 2.00





000
SAUS46 KLOX 222249
MTRSDB
METAR KSDB 222248Z AUTO 06009KT 10SM CLR 13/M11 A3030 RMK AO2 SLP235
T01331106





000
SAUS46 KLOX 222249
MTRCQT
METAR KCQT 222247Z AUTO 00000KT 10SM CLR 23/M08 A3016 RMK AO2 SLP212
T02331078





000
SAUS46 KLOX 222236
MTRMWS
METAR KMWS 222230Z 23500G00KT MM/M09 RMK SNOW DEPTH 2.00





000
SAUS46 KLOX 222215
MTRMWS
METAR KMWS 222200Z 25003G06KT 12/M08 RMK SNOW DEPTH 2.00





000
SAUS46 KLOX 222157
MTR9L2
METAR K9L2 222155Z AUTO 00000KT 10SM CLR 14/M09 A3028 RMK AO2 SLP261
T01441089 TSNO $





000
SAUS46 KLOX 222154
MTRMWS
METAR KMWS 222145Z 21004G06KT 15/M07 RMK SNOW DEPTH 3.00





000
SAUS46 KLOX 222154
MTRLAX
METAR KLAX 222153Z 24005KT 10SM FEW090 SCT160 BKN250 21/01 A3016 RMK
AO2 SLP213 T02110011





000
SAUS46 KLOX 222149
MTRSDB
METAR KSDB 222148Z AUTO 06010G19KT 10SM CLR 13/M10 A3030 RMK AO2
SLP236 T01281100





000
SAUS46 KLOX 222148
MTRCQT
METAR KCQT 222147Z AUTO 00000KT 10SM CLR 23/M08 A3016 RMK AO2 SLP210
T02281078





000
SAUS46 KLOX 222136
MTRMWS
METAR KMWS 222130Z 23500G00KT MM/M08 RMK SNOW DEPTH 2.00





000
SAUS46 KLOX 222115
MTRMWS
METAR KMWS 222100Z 21004G08KT 16/M06 RMK SNOW DEPTH 3.00





000
SAUS46 KLOX 222057
MTR9L2
METAR K9L2 222055Z AUTO 00000KT 10SM CLR 15/M08 A3028 RMK AO2 SLP262
T01501083 58019 TSNO $





000
SAUS46 KLOX 222054
MTRMWS
METAR KMWS 222045Z 22004G06KT 16/M08 RMK SNOW DEPTH 3.00





000
SAUS46 KLOX 222054
MTRLAX
METAR KLAX 222053Z 15006KT 10SM FEW090 SCT160 BKN250 22/M09 A3017
RMK AO2 SLP215 T02221089 58016





000
SAUS46 KLOX 222049
MTRSDB
METAR KSDB 222048Z AUTO 07016G22KT 10SM CLR 12/M12 A3030 RMK AO2
SLP236 T01221122 58007





000
SAUS46 KLOX 222048
MTRCQT
METAR KCQT 222047Z AUTO 00000KT 10SM CLR 23/M08 A3017 RMK AO2 SLP213
T02281083 58014





000
SAUS46 KLOX 222036
MTRMWS
METAR KMWS 222030Z 23500G00KT MM/M10 RMK SNOW DEPTH 2.00





000
SAUS46 KLOX 222015
MTRMWS
METAR KMWS 222000Z 35001G02KT 15/M16 RMK SNOW DEPTH 2.00





000
SAUS46 KLOX 221957
MTR9L2
METAR K9L2 221955Z AUTO 01004KT 10SM CLR 13/M04 A3031 RMK AO2 SLP272
T01331044 TSNO $





000
SAUS46 KLOX 221954
MTRLAX
METAR KLAX 221953Z 12004KT 10SM SCT160 BKN250 22/M06 A3019 RMK AO2
SLP223 T02221061





000
SAUS46 KLOX 221954
MTRMWS
METAR KMWS 221945Z 25502G03KT 16/M11 RMK SNOW DEPTH 2.00





000
SAUS46 KLOX 221949
MTRSDB
METAR KSDB 221948Z AUTO 07014KT 10SM CLR 13/M11 A3032 RMK AO2 SLP242
T01281111





000
SAUS46 KLOX 221948
MTRCQT
METAR KCQT 221947Z AUTO 00000KT 10SM CLR 22/M07 A3019 RMK AO2 SLP221
T02171072





000
SAUS46 KLOX 221915
MTRMWS
METAR KMWS 221900Z 01002G04KT 14/M23 RMK SNOW DEPTH 2.00





000
SAUS46 KLOX 221857
MTR9L2
METAR K9L2 221855Z AUTO 00000KT 10SM CLR 08/M02 A3034 RMK AO2 SLP286
T00781022 TSNO $





000
SAUS46 KLOX 221854
MTRMWS
METAR KMWS 221845Z 02001G03KT 11/M22 RMK SNOW DEPTH 2.00





000
SAUS46 KLOX 221854
MTRLAX
METAR KLAX 221853Z 08006KT 10SM SCT160 BKN250 21/M07 A3021 RMK AO2
SLP230 T02061067





000
SAUS46 KLOX 221849
MTRSDB
METAR KSDB 221848Z AUTO 06013G21KT 10SM CLR 12/M12 A3033 RMK AO2
SLP248 T01171122





000
SAUS46 KLOX 221848
MTRCQT
METAR KCQT 221847Z AUTO 00000KT 10SM CLR 21/M02 A3021 RMK AO2 SLP227
T02111022





000
SAUS46 KLOX 221815
MTRMWS
METAR KMWS 221800Z 01503G05KT 10/M20 RMK SNOW DEPTH 2.00





000
SAUS46 KLOX 221758
MTR9L2
METAR K9L2 221755Z AUTO 12003KT 10SM CLR 04/M02 A3034 RMK AO2 SLP288
T00391017 10039 21028 51018 TSNO $





000
SAUS46 KLOX 221754
MTRLAX
METAR KLAX 221753Z 34004KT 10SM FEW025 SCT160 BKN250 19/M03 A3022
RMK AO2 SLP231 T01891028 10189 20089 51019





000
SAUS46 KLOX 221754
MTRMWS
METAR KMWS 221745Z  0504G06KT 08/M18 RMK SNOW DEPTH 2.00





000
SAUS46 KLOX 221749
MTRSDB
METAR KSDB 221748Z AUTO 06012G23KT 10SM CLR 11/M13 A3033 RMK AO2
SLP246 T01111128 10117 20072 53015





000
SAUS46 KLOX 221748
MTRCQT
METAR KCQT 221747Z AUTO 00000KT 10SM CLR 19/M03 A3021 RMK AO2 SLP228
T01891028 10189 20083 51016





000
SAUS46 KLOX 221736
MTRMWS
METAR KMWS 221730Z 23500G00KT MM/M16 RMK SNOW DEPTH 2.00





000
SAUS46 KLOX 221715
MTRMWS
METAR KMWS 221700Z 26003G05KT 10/M18 RMK SNOW DEPTH 2.00





000
SAUS46 KLOX 221657
MTR9L2
METAR K9L2 221655Z AUTO 00000KT 10SM CLR 01/M04 A3033 RMK AO2 SLP288
T00111039 FZRANO TSNO $





000
SAUS46 KLOX 221654
MTRLAX
METAR KLAX 221653Z VRB06KT 10SM FEW018 BKN160 BKN250 16/M03 A3020
RMK AO2 SLP225 T01561028





000
SAUS46 KLOX 221654
MTRMWS
METAR KMWS 221645Z 25006G07KT 08/M21 RMK SNOW DEPTH 2.00





000
SAUS46 KLOX 221649
MTRSDB
METAR KSDB 221648Z AUTO 07014G20KT 10SM CLR 10/M13 A3031 RMK AO2
SLP241 T01001128





000
SAUS46 KLOX 221648
MTRCQT
METAR KCQT 221647Z AUTO 00000KT 10SM CLR 12/02 A3021 RMK AO2 SLP228
T01220022





000
SAUS46 KLOX 221615
MTRMWS
METAR KMWS 221600Z 25002G03KT 08/M27 RMK SNOW DEPTH 2.00





000
SAUS46 KLOX 221557
MTR9L2
METAR K9L2 221555Z AUTO 00000KT 10SM CLR M01/M04 A3030 RMK AO2
SLP277 T10061039 FZRANO TSNO $





000
SAUS46 KLOX 221557
MTR9L2
METAR K9L2 221555Z AUTO 00000KT 10SM CLR M01/M04 A3030 RMK AO2
SLP277 T10061039 FZRANO TSNO $





000
SAUS46 KLOX 221554
MTRMWS
METAR KMWS 221545Z 34002G02KT 08/M27 RMK SNOW DEPTH 2.00





000
SAUS46 KLOX 221554
MTRLAX
METAR KLAX 221553Z 00000KT 10SM FEW015 BKN160 BKN250 13/M01 A3019
RMK AO2 SLP221 T01281011





000
SAUS46 KLOX 221554
MTRMWS
METAR KMWS 221545Z 34002G02KT 08/M27 RMK SNOW DEPTH 2.00





000
SAUS46 KLOX 221554
MTRLAX
METAR KLAX 221553Z 00000KT 10SM FEW015 BKN160 BKN250 13/M01 A3019
RMK AO2 SLP221 T01281011





000
SAUS46 KLOX 221549
MTRSDB
METAR KSDB 221548Z AUTO 07016KT 10SM CLR 09/M14 A3029 RMK AO2 SLP237
T00891139





000
SAUS46 KLOX 221549
MTRSDB
METAR KSDB 221548Z AUTO 07016KT 10SM CLR 09/M14 A3029 RMK AO2 SLP237
T00891139





000
SAUS46 KLOX 221548
MTRCQT
METAR KCQT 221547Z AUTO 00000KT 10SM CLR 10/02 A3018 RMK AO2 SLP220
T01000022





000
SAUS46 KLOX 221548
MTRCQT
METAR KCQT 221547Z AUTO 00000KT 10SM CLR 10/02 A3018 RMK AO2 SLP220
T01000022





000
SAUS46 KLOX 221515
MTRMWS
METAR KMWS 221500Z 12001G01KT 07/M28 RMK SNOW DEPTH 2.00





000
SAUS46 KLOX 221457
MTR9L2
METAR K9L2 221455Z AUTO 00000KT 10SM CLR M02/M04 A3028 RMK AO2
SLP272 T10221044 53013 FZRANO TSNO $





000
SAUS46 KLOX 221454
MTRLAX
METAR KLAX 221453Z 08004KT 10SM FEW014 SCT160 SCT220 BKN280 11/00
A3016 RMK AO2 SLP212 T01060000 53015





000
SAUS46 KLOX 221449
MTRSDB
METAR KSDB 221448Z AUTO 07015KT 10SM CLR 08/M14 A3028 RMK AO2 SLP233
T00831139 53010





000
SAUS46 KLOX 221448
MTRCQT
METAR KCQT 221447Z AUTO 00000KT 10SM CLR 09/03 A3016 RMK AO2 SLP212
T00940028 53016





000
SAUS46 KLOX 221415
MTRMWS
METAR KMWS 221400Z 24004G04KT 08/M27 RMK SNOW DEPTH 2.00





000
SAUS46 KLOX 221357
MTR9L2
METAR K9L2 221355Z AUTO 03003KT 10SM CLR M02/M05 A3025 RMK AO2
SLP258 T10221050 FZRANO TSNO $





000
SAUS46 KLOX 221354
MTRMWS
METAR KMWS 221345Z 25004G04KT 08/M27 RMK SNOW DEPTH 2.00





000
SAUS46 KLOX 221354
MTRLAX
METAR KLAX 221353Z 00000KT 10SM FEW014 SCT200 10/02 A3015 RMK AO2
SLP206 T01000022 $





000
SAUS46 KLOX 221350
MTRSDB
METAR KSDB 221348Z AUTO 06012KT 10SM CLR 08/M12 A3026 RMK AO2 SLP226
T00781122





000
SAUS46 KLOX 221348
MTRCQT
METAR KCQT 221347Z AUTO 00000KT 10SM CLR 09/01 A3014 RMK AO2 SLP205
T00940006





000
SAUS46 KLOX 221315
MTRMWS
METAR KMWS 221300Z 25507G08KT 08/M25 RMK SNOW DEPTH 2.00





000
SAUS46 KLOX 221258
MTR9L2
METAR K9L2 221255Z AUTO 00000KT 10SM CLR M02/M04 A3024 RMK AO2
SLP251 T10221044 FZRANO TSNO $





000
SAUS46 KLOX 221254
MTRMWS
METAR KMWS 221245Z 22505G07KT 06/M25 RMK SNOW DEPTH 1.00





000
SAUS46 KLOX 221254
MTRLAX
METAR KLAX 221253Z 00000KT 10SM FEW014 10/04 A3012 RMK AO2 SLP199
T01000039 $





000
SAUS46 KLOX 221249
MTRSDB
METAR KSDB 221248Z AUTO 06010KT 10SM CLR 07/M11 A3024 RMK AO2 SLP218
T00721111





000
SAUS46 KLOX 221248
MTRCQT
METAR KCQT 221247Z AUTO 00000KT 10SM CLR 09/03 A3012 RMK AO2 SLP199
T00890028





    US Dept of Commerce
    National Oceanic and Atmospheric Administration
    National Weather Service
    1325 East West Highway
    Silver Spring, MD 20910
    Page Author: NWS Internet Services Team
Disclaimer
Information Quality
Credits
Glossary
Privacy Policy
Freedom of Information Act (FOIA)
About Us
Career Opportunities